Kaneohe, HI

12:11 PM HST am 20. Dezember 2014 (GMT -1000)
Kaneohe Bay Dr | Change Station
CLOSE
Current Station
Persönliche Wetterstationen
Location: Kaneohe, HI
Höhe: 78 ft
Wetterstationen in der Umgebung
aktive Warnung: High Surf Warning

Höhe 78 ft 21.41 °N, 157.77 °W | Updated 12 seconds ago

Overcast
Bedeckt
77.4 °F
gefühlte 79 °F
N
6.0
Wind Wechselnd Wind aus Ost-Nordost
Gusts 9.0 mph

Heute
Max. -- | schwach -- °F
--% Regenrisiko
Gestern
Max. -- | schwach -- °F
Precip. -- inch
7:04 AM 5:53 PM
Letztes Viertel, 2% visible
Druck 30.02 inch
Sichtweite 10.0 Meilen
Wolken Few 3100 ft
Bedeckt 4800 ft
Hitzeindex 79 °F
Taupunkt 66 °F
Feuchtigkeit 68%
Regen 0.00 inch
Schneehöhe Nicht verfügbar..
UV 2 von 12
Pollen Nicht verfügbar..
Luftqualität Nicht verfügbar..
Flu Activity Nicht verfügbar..
METAR PHNG 202157Z AUTO VRB06KT 10SM FEW031 OVC048 26/18 A3004 RMK AO2 SLP166 T02610183 $

More Conditions Fewer Conditions

Druck 30.02 inch
Sichtweite 10.0 Meilen
Wolken Few 3100 ft
Bedeckt 4800 ft
Hitzeindex 79 °F
Taupunkt 66 °F
Feuchtigkeit 68%
Regen 0.00 inch
Schneehöhe Nicht verfügbar..
UV 2 von 12
Pollen Nicht verfügbar..
Luftqualität Nicht verfügbar..
Flu Activity Nicht verfügbar..
METAR PHNG 202157Z AUTO VRB06KT 10SM FEW031 OVC048 26/18 A3004 RMK AO2 SLP166 T02610183 $

More Conditions Fewer Conditions

10-Day Weather Forecast

Almanac

Astronomie

Dec. 20, 2014 Aufgang Untergang
Genaue Zeit
Bürgerliche Dämmerung
Nautische Dämmerung
Astronomische Dämmerung
Mond
Länge des sichtbaren Lichts
Tageslänge
Tomorrow will be .
, % of the Moon is Illuminated

Heutige Rekorde

State Highs State Lows

Community

WunderPhotos

Upload Photos

1,779,291 Fotos hochgeladen!

WunderBlogs® & News

Nearby

Luftqualität

  Luftqualität LQ Index Schadstoff
Not available.

Schneehöhe

Station Depth Höhe

Erdbebenaktivität

Stadt Distance Mag. Time & Date
Minimum magnitude displayed is 2.5.

küstennahe Wassertemperaturen

Ort Temperatur

Wetterstationen in der Umgebung